Time;durP1;ratioP1;P1;durP2;ratioP2;P2;SDS_P1;SDS_P2;PMS_P1;PMS_P2;Temp;Humidity;BMP_temperature;BMP_pressure;BME280_temperature;BME280_humidity;BME280_pressure;Samples;Min_cycle;Max_cycle;Signal;HPM_P1;HPM_P2
2023/06/27 00:04:51;;;;;;;0.00;0.00;;;;;;;14.64;100.00;96958.09;5029009;28;20041;-77
2023/06/27 00:07:38;;;;;;;0.00;0.00;;;;;;;14.61;100.00;96948.66;5037861;28;20041;-77
2023/06/27 00:10:23;;;;;;;0.10;0.10;;;;;;;14.46;100.00;96972.78;5015643;28;20112;-77
2023/06/27 00:13:16;;;;;;;0.10;0.10;;;;;;;14.30;100.00;96963.78;5037546;28;20113;-77
2023/06/27 00:16:02;;;;;;;0.08;0.08;;;;;;;14.30;100.00;96977.25;5035879;28;20069;-77
2023/06/27 00:18:48;;;;;;;0.05;0.05;;;;;;;14.36;100.00;96978.91;5033845;28;20129;-77
2023/06/27 00:21:35;;;;;;;0.03;0.03;;;;;;;14.39;100.00;96991.03;5021272;28;20066;-78
2023/06/27 00:24:21;;;;;;;0.00;0.00;;;;;;;14.33;100.00;96981.31;5019185;28;20120;-77
2023/06/27 00:27:07;;;;;;;0.00;0.00;;;;;;;14.26;100.00;96972.66;5036348;28;20333;-77
2023/06/27 00:29:53;;;;;;;0.10;0.10;;;;;;;14.11;100.00;96981.44;5018890;28;20040;-78
2023/06/27 00:32:38;;;;;;;0.03;0.03;;;;;;;14.03;100.00;96980.03;5037902;28;20029;-78
2023/06/27 00:35:24;;;;;;;0.10;0.10;;;;;;;13.94;100.00;96982.38;5019358;28;20887;-78
2023/06/27 00:38:11;;;;;;;0.10;0.10;;;;;;;13.99;100.00;96973.53;5019517;28;20533;-78
2023/06/27 00:40:58;;;;;;;0.08;0.08;;;;;;;13.95;100.00;96972.44;5022232;28;20048;-78
2023/06/27 00:43:46;;;;;;;0.05;0.05;;;;;;;13.99;100.00;96972.72;5020915;28;20977;-80
2023/06/27 00:46:37;;;;;;;0.00;0.00;;;;;;;13.96;100.00;96976.75;5023155;28;20049;-80
2023/06/27 00:49:23;;;;;;;;;;;;;;;13.80;100.00;96985.75;5037470;28;20687;-78
2023/06/27 00:52:09;;;;;;;0.00;0.00;;;;;;;13.73;100.00;96983.28;5022555;28;19920;-77
2023/06/27 00:54:56;;;;;;;0.00;0.00;;;;;;;13.72;100.00;96978.16;5017408;28;20411;-77
2023/06/27 00:57:42;;;;;;;0.00;0.00;;;;;;;13.47;100.00;96979.53;5036336;28;20522;-77
2023/06/27 01:00:29;;;;;;;0.10;0.10;;;;;;;13.42;100.00;96989.44;5015671;28;20765;-78
2023/06/27 01:03:15;;;;;;;0.00;0.00;;;;;;;13.47;100.00;96982.25;5037166;28;20053;-78
2023/06/27 01:06:07;;;;;;;0.00;0.00;;;;;;;13.53;100.00;96981.19;5020811;28;20450;-79
2023/06/27 01:09:05;;;;;;;0.10;0.10;;;;;;;13.61;100.00;96982.63;5030609;28;20044;-79
2023/06/27 01:11:57;;;;;;;0.10;0.10;;;;;;;13.60;100.00;96987.19;5015338;28;20410;-79
2023/06/27 01:14:46;;;;;;;0.05;0.05;;;;;;;13.63;100.00;96980.50;5019644;28;20043;-79
2023/06/27 01:17:35;;;;;;;0.10;0.10;;;;;;;13.56;100.00;96980.72;5019330;28;20036;-78
2023/06/27 01:20:21;;;;;;;0.00;0.00;;;;;;;13.26;100.00;96975.84;5036610;28;20209;-79
2023/06/27 01:23:16;;;;;;;0.00;0.00;;;;;;;13.31;100.00;96973.22;5022837;28;20041;-78
2023/06/27 01:26:09;;;;;;;0.10;0.10;;;;;;;13.60;100.00;96976.44;5035104;28;20043;-79
2023/06/27 01:28:56;;;;;;;0.10;0.10;;;;;;;13.65;100.00;96973.78;5036385;28;20049;-78
2023/06/27 01:31:59;;;;;;;0.05;0.05;;;;;;;13.77;100.00;96981.69;5017697;28;20106;-79
2023/06/27 01:35:19;;;;;;;0.10;0.10;;;;;;;13.81;100.00;96987.38;5035865;28;20040;-79
2023/06/27 01:38:13;;;;;;;0.00;0.00;;;;;;;13.64;100.00;96979.44;5033887;28;20041;-79
2023/06/27 01:41:01;;;;;;;0.00;0.00;;;;;;;13.61;100.00;96972.66;5038326;28;20590;-78
2023/06/27 01:43:49;;;;;;;0.10;0.10;;;;;;;13.60;100.00;96972.94;5034292;28;20068;-79
2023/06/27 01:46:36;;;;;;;0.10;0.10;;;;;;;13.40;100.00;96970.06;5018477;28;20048;-77
2023/06/27 01:49:23;;;;;;;0.10;0.10;;;;;;;13.44;100.00;96969.28;5036164;28;20067;-78
2023/06/27 01:52:13;;;;;;;0.10;0.10;;;;;;;13.51;100.00;96966.41;5038130;28;20176;-78
2023/06/27 01:54:59;;;;;;;0.10;0.10;;;;;;;13.44;100.00;96963.91;5035775;28;20048;-78
2023/06/27 01:57:45;;;;;;;0.10;0.10;;;;;;;13.50;100.00;96976.34;5015613;28;20059;-78
2023/06/27 02:00:31;;;;;;;0.10;0.10;;;;;;;13.59;100.00;96979.38;5015022;28;20618;-78
2023/06/27 02:03:17;;;;;;;0.10;0.10;;;;;;;13.61;100.00;96972.66;5019970;28;20071;-78
2023/06/27 02:06:03;;;;;;;0.00;0.00;;;;;;;13.62;100.00;96974.31;5018948;28;20634;-78
2023/06/27 02:08:50;;;;;;;0.00;0.00;;;;;;;13.66;100.00;96970.03;5003179;28;20111;-78
2023/06/27 02:11:36;;;;;;;0.00;0.00;;;;;;;13.65;100.00;96971.09;5015397;28;20037;-78
2023/06/27 02:14:21;;;;;;;0.10;0.10;;;;;;;13.68;100.00;96966.28;5016569;28;20095;-77
2023/06/27 02:17:08;;;;;;;0.00;0.00;;;;;;;13.68;100.00;96971.66;5014852;28;20108;-78
2023/06/27 02:19:54;;;;;;;0.10;0.10;;;;;;;13.64;100.00;96963.31;5017728;28;20029;-78
2023/06/27 02:22:39;;;;;;;0.00;0.00;;;;;;;13.65;100.00;96957.66;5003952;28;20203;-78
2023/06/27 02:25:26;;;;;;;0.10;0.10;;;;;;;13.64;100.00;96966.78;5002150;28;20376;-78
2023/06/27 02:28:11;;;;;;;0.10;0.10;;;;;;;13.58;100.00;96962.44;5018585;28;20053;-78
2023/06/27 02:30:58;;;;;;;0.10;0.10;;;;;;;13.41;100.00;96964.44;5015667;28;20061;-78
2023/06/27 02:33:44;;;;;;;0.10;0.10;;;;;;;13.15;100.00;96960.66;5001558;28;20041;-78
2023/06/27 02:36:30;;;;;;;0.10;0.10;;;;;;;12.92;100.00;96940.25;4987824;28;20037;-78
2023/06/27 02:39:16;;;;;;;0.10;0.10;;;;;;;13.19;100.00;96950.19;4992656;28;20037;-78
2023/06/27 02:42:02;;;;;;;0.10;0.10;;;;;;;13.41;100.00;96956.38;5016910;28;20037;-78
2023/06/27 02:44:49;;;;;;;0.10;0.10;;;;;;;13.55;100.00;96959.47;5004171;28;20126;-79
2023/06/27 02:47:34;;;;;;;0.00;0.00;;;;;;;13.61;100.00;96967.28;5018218;28;20072;-80
2023/06/27 02:50:20;;;;;;;0.08;0.08;;;;;;;13.61;100.00;96977.22;5016844;28;20045;-80
2023/06/27 02:53:06;;;;;;;0.10;0.10;;;;;;;13.68;100.00;96971.66;4941693;28;20061;-80
2023/06/27 02:55:52;;;;;;;0.10;0.10;;;;;;;13.73;100.00;96955.56;4988014;28;20053;-79
2023/06/27 02:58:39;;;;;;;0.10;0.10;;;;;;;13.72;100.00;96964.72;4999985;28;20037;-80
2023/06/27 03:01:25;;;;;;;0.10;0.10;;;;;;;13.55;100.00;96957.56;4997979;28;20072;-80
2023/06/27 03:04:11;;;;;;;0.10;0.10;;;;;;;13.66;100.00;96963.84;4991694;28;20080;-79
2023/06/27 03:06:57;;;;;;;0.10;0.10;;;;;;;13.63;100.00;96970.56;5012561;28;20053;-80
2023/06/27 03:09:43;;;;;;;0.03;0.03;;;;;;;13.57;100.00;96976.13;5037586;28;20051;-80
2023/06/27 03:12:29;;;;;;;0.00;0.00;;;;;;;13.42;100.00;96970.63;5019266;28;20120;-80
2023/06/27 03:15:15;;;;;;;0.10;0.10;;;;;;;13.31;100.00;96972.41;5019110;28;20048;-80
2023/06/27 03:18:02;;;;;;;0.05;0.05;;;;;;;13.30;100.00;96976.13;5020938;28;20183;-80
2023/06/27 03:20:47;;;;;;;0.10;0.10;;;;;;;13.29;100.00;96977.19;5019966;28;20052;-79
2023/06/27 03:23:33;;;;;;;0.10;0.10;;;;;;;13.09;100.00;96975.09;5038163;28;20067;-80
2023/06/27 03:26:23;;;;;;;0.10;0.10;;;;;;;12.68;100.00;96974.56;5019834;28;20094;-80
2023/06/27 03:29:09;;;;;;;0.00;0.00;;;;;;;12.77;100.00;96983.03;5037324;28;20153;-78
2023/06/27 03:31:57;;;;;;;0.00;0.00;;;;;;;12.90;100.00;96969.19;5020338;28;20047;-78
2023/06/27 03:34:43;;;;;;;0.10;0.10;;;;;;;12.87;100.00;96975.09;5009325;28;20037;-78
2023/06/27 03:37:30;;;;;;;0.10;0.10;;;;;;;12.83;100.00;96971.25;5020687;28;20067;-78
2023/06/27 03:40:16;;;;;;;0.10;0.10;;;;;;;12.92;100.00;96985.91;5032769;28;20040;-78
2023/06/27 03:43:01;;;;;;;0.00;0.00;;;;;;;13.07;100.00;96978.03;5034149;28;20123;-78
2023/06/27 03:45:48;;;;;;;0.10;0.10;;;;;;;13.10;100.00;96982.88;5022926;28;20048;-78
2023/06/27 03:48:33;;;;;;;0.00;0.00;;;;;;;13.28;100.00;96981.75;5022235;28;20128;-78
2023/06/27 03:51:22;;;;;;;0.10;0.10;;;;;;;13.36;100.00;96981.31;5021886;28;20067;-78
2023/06/27 03:54:09;;;;;;;0.08;0.08;;;;;;;13.31;100.00;96993.91;5022859;28;20048;-78
2023/06/27 03:56:55;;;;;;;0.08;0.08;;;;;;;13.30;100.00;96998.44;5032286;28;20123;-77
2023/06/27 03:59:40;;;;;;;0.10;0.10;;;;;;;13.38;100.00;96987.25;5034677;28;20071;-79
2023/06/27 04:02:27;;;;;;;0.00;0.00;;;;;;;13.35;100.00;96981.56;5017383;28;20116;-77
2023/06/27 04:05:13;;;;;;;0.10;0.10;;;;;;;13.37;100.00;96990.19;5022117;28;20044;-78
2023/06/27 04:07:59;;;;;;;0.10;0.10;;;;;;;13.37;100.00;96995.56;5039203;28;20048;-79
2023/06/27 04:10:45;;;;;;;0.10;0.10;;;;;;;13.23;100.00;96997.00;5021679;28;20048;-78
2023/06/27 04:13:31;;;;;;;0.10;0.10;;;;;;;13.20;100.00;96992.16;5021797;28;20555;-78
2023/06/27 04:16:17;;;;;;;0.10;0.10;;;;;;;13.15;100.00;96995.56;5021076;28;20346;-78
2023/06/27 04:19:03;;;;;;;0.10;0.10;;;;;;;13.22;100.00;97000.75;5022891;28;20194;-79
2023/06/27 04:21:49;;;;;;;0.10;0.10;;;;;;;13.22;100.00;97001.56;5025130;28;20079;-79
2023/06/27 04:24:35;;;;;;;0.10;0.10;;;;;;;13.25;100.00;96994.91;5036215;28;20036;-78
2023/06/27 04:27:22;;;;;;;0.03;0.03;;;;;;;13.23;100.00;97003.22;5021268;28;20064;-78
2023/06/27 04:30:09;;;;;;;0.10;0.10;;;;;;;13.31;100.00;96993.91;5019831;28;20040;-79
2023/06/27 04:32:55;;;;;;;0.10;0.10;;;;;;;13.29;100.00;96996.81;5035408;28;20797;-78
2023/06/27 04:35:41;;;;;;;0.10;0.10;;;;;;;13.26;100.00;96981.19;5037004;28;20048;-79
2023/06/27 04:38:28;;;;;;;0.10;0.10;;;;;;;13.33;100.00;96986.38;5038950;28;20040;-79
2023/06/27 04:41:15;;;;;;;0.00;0.00;;;;;;;13.30;100.00;96990.38;5032813;28;20129;-79
2023/06/27 04:44:02;;;;;;;0.10;0.10;;;;;;;13.26;100.00;96983.09;5024152;28;20910;-78
2023/06/27 04:46:48;;;;;;;0.00;0.00;;;;;;;13.42;100.00;96974.09;5038444;28;20114;-79
2023/06/27 04:49:34;;;;;;;0.10;0.10;;;;;;;13.60;100.00;96971.06;5021956;28;20272;-79
2023/06/27 04:52:20;;;;;;;0.10;0.10;;;;;;;13.55;100.00;96983.66;5035547;28;20036;-79
2023/06/27 04:55:06;;;;;;;0.10;0.10;;;;;;;13.52;100.00;96979.56;5023510;28;20059;-78
2023/06/27 04:57:52;;;;;;;0.10;0.10;;;;;;;13.49;100.00;96980.09;5021969;28;20532;-79
2023/06/27 05:00:38;;;;;;;0.10;0.10;;;;;;;13.51;100.00;96977.16;5017666;28;20083;-80
2023/06/27 05:03:24;;;;;;;0.10;0.10;;;;;;;13.55;100.00;96984.47;5021876;28;20051;-79
2023/06/27 05:06:10;;;;;;;0.10;0.10;;;;;;;13.84;100.00;96992.22;5022840;28;20037;-79
2023/06/27 05:08:56;;;;;;;0.10;0.10;;;;;;;13.96;100.00;96990.19;5035869;28;20077;-79
2023/06/27 05:11:42;;;;;;;0.10;0.10;;;;;;;14.03;100.00;96993.47;5036999;28;20885;-79
2023/06/27 05:14:28;;;;;;;0.10;0.10;;;;;;;13.98;100.00;96992.63;5034772;28;20087;-79
2023/06/27 05:17:14;;;;;;;0.10;0.10;;;;;;;13.96;100.00;96990.19;5014844;28;20051;-79
2023/06/27 05:20:01;;;;;;;0.10;0.10;;;;;;;13.87;100.00;96986.34;5039178;28;20127;-79
2023/06/27 05:22:47;;;;;;;0.10;0.10;;;;;;;13.83;100.00;96987.94;5037070;28;20048;-80
2023/06/27 05:25:33;;;;;;;0.10;0.10;;;;;;;13.79;100.00;96981.44;5022962;28;20487;-80
2023/06/27 05:28:19;;;;;;;0.10;0.10;;;;;;;13.78;100.00;96995.97;5018638;28;20206;-80
2023/06/27 05:31:05;;;;;;;0.00;0.00;;;;;;;13.60;100.00;96997.13;5010047;28;20084;-79
2023/06/27 05:33:51;;;;;;;0.10;0.10;;;;;;;13.62;100.00;96993.13;5021577;28;20036;-80
2023/06/27 05:36:37;;;;;;;0.10;0.10;;;;;;;13.56;100.00;96993.34;5023257;28;20041;-79
2023/06/27 05:39:23;;;;;;;0.10;0.10;;;;;;;13.50;100.00;96997.84;5036350;28;20051;-80
2023/06/27 05:42:09;;;;;;;0.08;0.08;;;;;;;13.59;100.00;96992.81;5021485;28;20041;-80
2023/06/27 05:44:55;;;;;;;0.00;0.00;;;;;;;13.82;100.00;96991.69;5020207;28;20073;-80
2023/06/27 05:47:42;;;;;;;0.00;0.00;;;;;;;13.99;100.00;96981.59;5025677;28;20629;-80
2023/06/27 05:50:28;;;;;;;0.05;0.05;;;;;;;14.23;100.00;96985.53;5023321;28;20037;-80
2023/06/27 05:53:14;;;;;;;0.10;0.10;;;;;;;14.33;100.00;96990.22;5025644;28;20550;-80
2023/06/27 05:56:01;;;;;;;0.10;0.10;;;;;;;14.39;100.00;96999.09;5012745;28;20044;-80
2023/06/27 05:58:47;;;;;;;0.10;0.10;;;;;;;14.41;100.00;97005.06;5021406;28;20052;-80
2023/06/27 06:01:35;;;;;;;0.10;0.10;;;;;;;14.10;100.00;96987.88;5021934;28;20902;-79
2023/06/27 06:04:21;;;;;;;0.10;0.10;;;;;;;13.86;100.00;96988.25;5036605;28;20075;-79
2023/06/27 06:07:07;;;;;;;0.10;0.10;;;;;;;14.06;100.00;97001.03;5024785;28;20045;-80
2023/06/27 06:09:53;;;;;;;0.10;0.10;;;;;;;14.37;100.00;96995.88;5025284;28;20460;-80
2023/06/27 06:12:39;;;;;;;0.13;0.13;;;;;;;14.58;100.00;96989.56;5019716;28;20044;-80
2023/06/27 06:15:25;;;;;;;0.10;0.10;;;;;;;14.63;100.00;96984.22;5039291;28;20080;-79
2023/06/27 06:18:11;;;;;;;0.20;0.20;;;;;;;14.87;100.00;96984.63;4966112;28;20482;-79
2023/06/27 06:20:57;;;;;;;0.00;0.00;;;;;;;14.95;100.00;96986.00;5021135;28;20075;-80
2023/06/27 06:23:43;;;;;;;0.10;0.10;;;;;;;15.07;100.00;96978.47;5005305;28;20041;-80
2023/06/27 06:26:29;;;;;;;0.10;0.10;;;;;;;15.07;100.00;96980.38;5010338;28;21225;-80
2023/06/27 06:29:15;;;;;;;0.10;0.10;;;;;;;15.14;100.00;96980.94;5019311;28;20056;-80
2023/06/27 06:32:01;;;;;;;0.10;0.10;;;;;;;15.30;100.00;96987.97;5010640;28;20041;-80
2023/06/27 06:34:47;;;;;;;0.10;0.10;;;;;;;15.55;100.00;96989.91;5024959;28;20103;-80
2023/06/27 06:37:33;;;;;;;0.10;0.10;;;;;;;15.59;100.00;96980.22;5008733;28;20049;-79
2023/06/27 06:40:19;;;;;;;0.15;0.15;;;;;;;15.75;100.00;96998.09;5036235;28;20053;-80
2023/06/27 06:43:05;;;;;;;0.10;0.10;;;;;;;15.67;100.00;96984.31;5016967;28;20047;-79
2023/06/27 06:45:52;;;;;;;0.10;0.10;;;;;;;15.78;100.00;96984.06;5010560;28;20105;-80
2023/06/27 06:48:38;;;;;;;0.10;0.10;;;;;;;15.85;100.00;96981.09;5023042;28;20465;-79
2023/06/27 06:51:24;;;;;;;0.10;0.10;;;;;;;16.04;100.00;96990.28;5022296;28;20399;-79
2023/06/27 06:54:10;;;;;;;0.10;0.10;;;;;;;16.10;100.00;96988.38;5022506;28;20067;-79
2023/06/27 06:56:56;;;;;;;0.10;0.10;;;;;;;16.03;100.00;96994.06;5019912;28;20059;-78
2023/06/27 06:59:42;;;;;;;0.10;0.10;;;;;;;16.10;100.00;96986.47;5010349;28;20350;-79
2023/06/27 07:02:28;;;;;;;0.10;0.10;;;;;;;16.15;100.00;96977.59;5021503;28;20508;-79
2023/06/27 07:05:14;;;;;;;0.10;0.10;;;;;;;16.12;100.00;96978.94;5010934;28;20407;-79
2023/06/27 07:08:00;;;;;;;0.10;0.10;;;;;;;16.20;100.00;96972.19;5022459;28;20080;-80
2023/06/27 07:10:46;;;;;;;0.10;0.10;;;;;;;16.30;100.00;96974.88;5008343;28;20458;-79
2023/06/27 07:13:32;;;;;;;0.10;0.10;;;;;;;16.30;100.00;96982.97;5007452;28;20041;-79
2023/06/27 07:16:18;;;;;;;0.00;0.00;;;;;;;16.27;100.00;96966.50;5034893;28;20044;-79
2023/06/27 07:19:04;;;;;;;0.10;0.10;;;;;;;16.37;100.00;96980.00;5009116;28;20048;-78
2023/06/27 07:21:50;;;;;;;0.00;0.00;;;;;;;16.39;100.00;96973.22;5004818;28;20138;-79
2023/06/27 07:24:36;;;;;;;0.10;0.10;;;;;;;16.51;100.00;96980.25;5020617;28;20041;-78
2023/06/27 07:27:22;;;;;;;0.10;0.10;;;;;;;16.51;100.00;96967.53;5021704;28;20068;-78
2023/06/27 07:30:08;;;;;;;0.10;0.10;;;;;;;16.63;100.00;96975.34;5010498;28;20246;-80
2023/06/27 07:32:54;;;;;;;0.10;0.10;;;;;;;16.56;100.00;96970.22;5005053;28;20041;-79
2023/06/27 07:35:40;;;;;;;0.00;0.00;;;;;;;16.75;100.00;96975.88;5021197;28;20076;-79
2023/06/27 07:38:26;;;;;;;0.00;0.00;;;;;;;16.80;100.00;96964.22;5009991;28;20110;-79
2023/06/27 07:41:12;;;;;;;0.10;0.10;;;;;;;16.89;100.00;96968.00;5017534;28;20072;-79
2023/06/27 07:43:58;;;;;;;0.10;0.10;;;;;;;16.95;100.00;96967.69;5034441;28;20037;-79
2023/06/27 07:46:44;;;;;;;0.10;0.10;;;;;;;17.04;100.00;96973.31;5021824;28;20044;-79
2023/06/27 07:49:31;;;;;;;0.10;0.10;;;;;;;16.93;100.00;96969.06;4975460;28;20037;-79
2023/06/27 07:52:17;;;;;;;0.10;0.10;;;;;;;17.11;100.00;96973.03;5020366;28;20072;-79
2023/06/27 07:55:03;;;;;;;0.00;0.00;;;;;;;17.23;100.00;96982.44;5006502;28;20075;-79
2023/06/27 07:57:49;;;;;;;0.10;0.10;;;;;;;17.26;100.00;96973.75;5023118;28;20359;-80
2023/06/27 08:00:35;;;;;;;0.10;0.10;;;;;;;17.38;100.00;96970.72;5008061;28;20068;-79
2023/06/27 08:03:21;;;;;;;0.10;0.10;;;;;;;17.37;100.00;96954.78;5022228;28;20040;-79
2023/06/27 08:06:07;;;;;;;0.05;0.05;;;;;;;17.40;100.00;96963.13;5033393;28;20040;-79
2023/06/27 08:08:53;;;;;;;0.10;0.10;;;;;;;17.53;100.00;96969.84;5009487;28;20828;-79
2023/06/27 08:11:39;;;;;;;0.10;0.10;;;;;;;17.52;100.00;96963.63;5020442;28;20641;-80
2023/06/27 08:14:27;;;;;;;0.10;0.10;;;;;;;17.61;100.00;96960.31;5008783;28;20130;-79
2023/06/27 08:17:13;;;;;;;0.10;0.10;;;;;;;17.63;100.00;96958.94;5021318;28;20036;-79
2023/06/27 08:19:59;;;;;;;0.00;0.00;;;;;;;17.61;100.00;96960.31;5033796;28;20485;-79
2023/06/27 08:22:46;;;;;;;0.10;0.10;;;;;;;17.78;100.00;96971.59;5007505;28;20110;-79
2023/06/27 08:25:35;;;;;;;0.10;0.10;;;;;;;17.94;98.66;96948.72;5032626;28;20051;-79
2023/06/27 08:28:21;;;;;;;0.10;0.10;;;;;;;18.29;98.25;96955.72;5018917;28;20040;-79
2023/06/27 08:31:07;;;;;;;0.10;0.10;;;;;;;18.46;99.24;96958.00;5003422;28;20048;-79
2023/06/27 08:33:53;;;;;;;0.10;0.10;;;;;;;18.77;96.54;96946.84;5009354;28;20041;-79
2023/06/27 08:36:40;;;;;;;0.10;0.10;;;;;;;18.69;95.14;96942.06;5031572;28;20052;-79
2023/06/27 08:39:26;;;;;;;0.00;0.00;;;;;;;18.48;92.54;96952.28;5018638;28;20136;-79
2023/06/27 08:42:13;;;;;;;0.10;0.10;;;;;;;18.29;94.66;96941.38;5017335;28;20040;-79
2023/06/27 08:44:59;;;;;;;0.10;0.10;;;;;;;18.76;93.44;96961.50;5015134;28;20047;-80
2023/06/27 08:47:46;;;;;;;0.15;0.10;;;;;;;19.31;88.46;96940.22;5014109;28;20047;-80
2023/06/27 08:50:38;;;;;;;0.20;0.20;;;;;;;19.52;88.79;96938.78;4982602;28;20069;-79
2023/06/27 08:53:27;;;;;;;0.10;0.10;;;;;;;19.52;89.21;96943.41;5008505;28;20537;-80
2023/06/27 08:56:17;;;;;;;0.10;0.10;;;;;;;19.13;88.49;96926.31;5036086;28;20465;-80
2023/06/27 08:59:06;;;;;;;0.10;0.10;;;;;;;19.90;85.70;96917.06;5036658;28;20819;-79
2023/06/27 09:01:53;;;;;;;0.10;0.10;;;;;;;20.16;84.27;96917.47;5034466;28;20048;-79
2023/06/27 09:04:41;;;;;;;0.10;0.10;;;;;;;19.89;85.33;96926.31;5036542;28;20116;-78
2023/06/27 09:07:27;;;;;;;0.10;0.10;;;;;;;20.16;86.83;96929.13;5031729;28;20044;-79
2023/06/27 09:10:14;;;;;;;0.15;0.15;;;;;;;20.55;82.72;96927.91;5035087;28;20044;-78
2023/06/27 09:13:01;;;;;;;0.00;0.00;;;;;;;20.51;81.62;96919.53;5018568;28;20036;-79
2023/06/27 09:15:47;;;;;;;0.03;0.03;;;;;;;21.05;79.08;96909.75;5022744;28;20091;-79
2023/06/27 09:18:34;;;;;;;0.10;0.10;;;;;;;21.50;75.44;96918.06;5014482;28;20037;-79
2023/06/27 09:21:21;;;;;;;0.10;0.10;;;;;;;21.13;72.78;96916.38;5029573;28;20040;-79
2023/06/27 09:24:13;;;;;;;0.10;0.10;;;;;;;20.99;72.94;96921.03;5018674;28;20036;-79
2023/06/27 09:27:00;;;;;;;0.10;0.10;;;;;;;21.18;76.24;96912.75;5017818;28;20133;-79
2023/06/27 09:29:46;;;;;;;0.10;0.10;;;;;;;21.38;76.86;96921.28;5008450;28;20086;-79
2023/06/27 09:32:33;;;;;;;0.10;0.10;;;;;;;21.76;75.16;96906.56;5019455;28;20049;-78
2023/06/27 09:35:19;;;;;;;0.10;0.10;;;;;;;21.64;73.88;96909.84;5019129;28;20041;-80
2023/06/27 09:38:09;;;;;;;0.10;0.10;;;;;;;21.52;73.47;96912.28;5001387;28;20376;-79
2023/06/27 09:41:05;;;;;;;0.10;0.10;;;;;;;21.70;72.15;96927.66;5017110;28;20052;-80
2023/06/27 09:43:51;;;;;;;0.10;0.10;;;;;;;21.75;76.06;96930.25;5015710;28;20048;-79
2023/06/27 09:46:37;;;;;;;0.10;0.10;;;;;;;22.00;77.47;96939.72;5031903;28;20627;-78
2023/06/27 09:49:29;;;;;;;0.10;0.10;;;;;;;22.12;74.94;96926.38;4980511;28;20049;-79
2023/06/27 09:52:18;;;;;;;0.10;0.10;;;;;;;22.04;68.78;96923.59;5029010;28;20151;-79
2023/06/27 09:55:17;;;;;;;0.10;0.10;;;;;;;21.50;65.50;96925.41;5031677;28;20110;-79
2023/06/27 09:58:04;;;;;;;0.10;0.10;;;;;;;22.24;71.19;96925.78;5033022;28;20037;-79
2023/06/27 10:00:50;;;;;;;0.10;0.10;;;;;;;22.45;68.60;96918.69;5003415;28;20119;-79
2023/06/27 10:03:36;;;;;;;0.10;0.10;;;;;;;22.18;71.70;96924.34;5018084;28;20064;-79
2023/06/27 10:06:22;;;;;;;0.08;0.08;;;;;;;21.76;75.65;96920.97;5007756;28;20036;-79
2023/06/27 10:09:09;;;;;;;0.10;0.10;;;;;;;21.66;76.74;96937.56;5032958;28;20597;-79
2023/06/27 10:11:55;;;;;;;0.10;0.10;;;;;;;21.82;75.88;96927.91;5012636;28;20037;-79
2023/06/27 10:14:43;;;;;;;0.10;0.10;;;;;;;22.35;71.28;96931.81;5033522;28;20053;-79
2023/06/27 10:17:29;;;;;;;0.10;0.10;;;;;;;22.68;66.80;96919.44;5017949;28;20412;-79
2023/06/27 10:20:15;;;;;;;0.10;0.10;;;;;;;22.97;65.39;96913.47;5003651;28;20048;-79
2023/06/27 10:23:03;;;;;;;0.03;0.03;;;;;;;23.59;64.37;96918.69;5019468;28;20036;-78
2023/06/27 10:25:49;;;;;;;0.00;0.00;;;;;;;23.86;65.24;96911.31;5017862;28;20044;-78
2023/06/27 10:28:35;;;;;;;0.00;0.00;;;;;;;24.39;59.20;96910.13;5035776;28;20037;-78
2023/06/27 10:31:50;;;;;;;0.10;0.10;;;;;;;24.22;57.51;96910.94;4982575;28;20049;-78
2023/06/27 10:34:41;;;;;;;0.10;0.10;;;;;;;23.43;59.53;96901.19;5018711;28;20052;-78
2023/06/27 10:37:27;;;;;;;0.10;0.10;;;;;;;22.97;63.38;96913.47;5022312;28;20997;-79
2023/06/27 10:40:13;;;;;;;0.10;0.10;;;;;;;22.48;65.06;96915.34;5034256;28;20487;-79
2023/06/27 10:42:59;;;;;;;0.10;0.10;;;;;;;22.16;65.73;96912.94;5021271;28;20403;-79
2023/06/27 10:46:04;;;;;;;0.00;0.00;;;;;;;22.05;62.23;96914.28;5006606;28;20063;-79
2023/06/27 10:48:54;;;;;;;0.00;0.00;;;;;;;22.04;68.13;96918.94;5019668;28;20663;-78
2023/06/27 10:51:44;;;;;;;0.10;0.10;;;;;;;22.68;66.56;96921.38;5019079;28;20766;-79
2023/06/27 10:54:30;;;;;;;0.10;0.10;;;;;;;23.44;61.60;96910.97;5004675;28;20048;-79
2023/06/27 10:57:16;;;;;;;0.10;0.10;;;;;;;24.05;54.56;96902.78;5034057;28;20084;-78
2023/06/27 11:00:13;;;;;;;0.10;0.10;;;;;;;24.71;52.46;96901.31;5005995;28;20564;-79
2023/06/27 11:03:03;;;;;;;0.10;0.10;;;;;;;25.01;46.64;96906.78;5033408;28;20488;-79
2023/06/27 11:05:54;;;;;;;0.10;0.10;;;;;;;24.92;46.73;96884.94;5018102;28;20506;-79
2023/06/27 11:08:40;;;;;;;0.10;0.10;;;;;;;24.78;46.84;96898.06;5036281;28;20454;-79
2023/06/27 11:11:28;;;;;;;0.10;0.10;;;;;;;23.98;50.66;96899.75;5008973;28;20147;-79
2023/06/27 11:14:14;;;;;;;0.10;0.10;;;;;;;23.46;55.88;96892.34;5030719;28;20033;-79
2023/06/27 11:17:03;;;;;;;0.00;0.00;;;;;;;23.60;51.04;96894.94;5019597;28;20127;-79
2023/06/27 11:19:50;;;;;;;0.10;0.10;;;;;;;24.44;52.59;96897.09;5036407;28;20037;-79
2023/06/27 11:22:37;;;;;;;0.10;0.10;;;;;;;24.26;52.81;96898.22;5005033;28;20045;-79
2023/06/27 11:25:23;;;;;;;0.10;0.10;;;;;;;24.27;50.04;96893.53;5020369;28;20447;-79
2023/06/27 11:28:13;;;;;;;0.03;0.03;;;;;;;24.27;52.69;96896.28;5004692;28;20032;-79
2023/06/27 11:31:00;;;;;;;0.10;0.10;;;;;;;24.06;50.61;96888.78;5023939;28;20123;-79
2023/06/27 11:33:56;;;;;;;0.00;0.00;;;;;;;24.08;52.33;96897.47;5020097;28;20377;-79
2023/06/27 11:36:42;;;;;;;0.08;0.08;;;;;;;24.05;52.87;96897.31;5017579;28;20041;-79
2023/06/27 11:39:28;;;;;;;0.10;0.10;;;;;;;24.88;49.50;96903.16;5018589;28;20044;-79
2023/06/27 11:42:14;;;;;;;0.10;0.10;;;;;;;24.14;49.99;96896.16;5035236;28;20036;-80
2023/06/27 11:45:00;;;;;;;0.10;0.10;;;;;;;23.90;57.09;96884.97;5019646;28;20712;-79
2023/06/27 11:47:46;;;;;;;0.10;0.10;;;;;;;23.45;55.96;96896.19;5011039;28;20378;-80
2023/06/27 11:50:33;;;;;;;0.00;0.00;;;;;;;23.45;53.95;96889.94;5010078;28;20600;-80
2023/06/27 11:53:20;;;;;;;0.17;0.17;;;;;;;24.61;51.73;96895.41;5034519;28;20235;-80
2023/06/27 11:56:08;;;;;;;0.10;0.10;;;;;;;26.73;40.67;96887.22;5034643;28;20041;-80
2023/06/27 11:58:59;;;;;;;0.10;0.10;;;;;;;25.74;43.75;96879.06;5008515;28;20051;-80
2023/06/27 12:01:45;;;;;;;0.10;0.10;;;;;;;25.19;46.03;96886.41;5002266;28;20160;-80
2023/06/27 12:04:31;;;;;;;0.10;0.10;;;;;;;25.54;48.96;96888.91;5004099;28;20040;-80
2023/06/27 12:07:19;;;;;;;0.10;0.10;;;;;;;27.48;39.72;96882.16;5007547;28;20312;-80
2023/06/27 12:10:06;;;;;;;0.10;0.10;;;;;;;28.15;36.15;96874.19;5022523;28;20139;-80
2023/06/27 12:12:52;;;;;;;0.10;0.10;;;;;;;26.09;43.68;96887.78;5034728;28;20041;-80
2023/06/27 12:15:46;;;;;;;0.10;0.10;;;;;;;24.64;47.47;96884.59;5020398;28;20051;-80
2023/06/27 12:18:32;;;;;;;0.10;0.10;;;;;;;28.14;36.36;96874.56;5017287;28;20049;-79
2023/06/27 12:21:18;;;;;;;0.00;0.00;;;;;;;30.01;30.53;96867.50;5009172;28;20032;-79
2023/06/27 12:24:05;;;;;;;0.10;0.10;;;;;;;30.87;28.85;96864.34;5033350;28;20527;-79
2023/06/27 12:26:51;;;;;;;0.10;0.10;;;;;;;32.61;27.13;96849.94;5029973;28;20047;-79
2023/06/27 12:29:37;;;;;;;0.20;0.20;;;;;;;34.17;24.76;96851.25;5016377;28;20045;-79
2023/06/27 12:32:24;;;;;;;0.10;0.10;;;;;;;35.75;22.16;96849.97;5032391;28;20086;-79
2023/06/27 12:35:17;;;;;;;0.17;0.17;;;;;;;36.69;21.04;96841.47;5018334;28;20391;-79
2023/06/27 12:38:03;;;;;;;0.00;0.00;;;;;;;34.55;22.77;96833.88;5018483;28;20491;-79
2023/06/27 12:40:49;;;;;;;0.10;0.10;;;;;;;34.94;21.10;96835.03;5015357;28;20360;-79
2023/06/27 12:43:35;;;;;;;0.10;0.10;;;;;;;35.65;21.30;96823.78;5018387;28;20103;-79
2023/06/27 12:46:21;;;;;;;0.10;0.10;;;;;;;35.35;22.92;96838.16;5029815;28;20067;-79
2023/06/27 12:49:08;;;;;;;0.20;0.20;;;;;;;37.32;19.84;96828.16;5011189;28;20028;-80
2023/06/27 12:51:54;;;;;;;0.20;0.20;;;;;;;38.34;18.30;96829.28;5033528;28;20098;-80
2023/06/27 12:54:40;;;;;;;0.00;0.00;;;;;;;35.48;20.32;96824.63;5015458;28;20045;-80
2023/06/27 12:57:26;;;;;;;0.00;0.00;;;;;;;29.95;27.56;96833.91;5029941;28;20037;-80
2023/06/27 13:00:19;;;;;;;0.10;0.10;;;;;;;31.20;27.83;96824.94;5034396;28;20044;-80
2023/06/27 13:03:06;;;;;;;0.00;0.00;;;;;;;31.16;28.79;96822.16;5018946;28;20131;-80
2023/06/27 13:05:52;;;;;;;0.10;0.10;;;;;;;33.20;24.47;96827.81;5026407;28;20047;-80